Time;durP1;ratioP1;P1;durP2;ratioP2;P2;SDS_P1;SDS_P2;PMS_P1;PMS_P2;Temp;Humidity;BMP_temperature;BMP_pressure;BME280_temperature;BME280_humidity;BME280_pressure;Samples;Min_cycle;Max_cycle;Signal;HPM_P1;HPM_P2
2022/07/19 00:00:09;;;;;;;2.63;1.93;;;25.00;47.50;;;;;;4995033;28;20570;-77
2022/07/19 00:02:38;;;;;;;3.63;1.50;;;25.00;47.80;;;;;;4995129;28;20945;-77
2022/07/19 00:05:04;;;;;;;3.33;1.80;;;25.00;47.80;;;;;;4995020;28;20558;-77
2022/07/19 00:07:30;;;;;;;3.70;1.93;;;25.10;47.80;;;;;;4995344;28;21109;-77
2022/07/19 00:09:56;;;;;;;3.07;1.53;;;25.10;47.80;;;;;;4999764;28;20621;-77
2022/07/19 00:12:22;;;;;;;3.03;1.90;;;25.10;48.00;;;;;;4977584;28;20191;-77
2022/07/19 00:14:47;;;;;;;2.30;1.33;;;25.10;47.80;;;;;;4994712;28;20162;-77
2022/07/19 00:17:13;;;;;;;3.17;1.50;;;25.10;47.70;;;;;;4995146;28;20225;-77
2022/07/19 00:19:39;;;;;;;3.17;2.20;;;25.10;47.80;;;;;;4994668;28;20578;-77
2022/07/19 00:22:06;;;;;;;4.30;2.07;;;25.10;47.90;;;;;;4995107;28;20605;-77
2022/07/19 00:24:32;;;;;;;4.50;1.47;;;25.10;48.00;;;;;;4992999;28;20574;-77
2022/07/19 00:26:58;;;;;;;2.57;1.40;;;25.00;48.00;;;;;;4993978;28;21165;-77
2022/07/19 00:29:23;;;;;;;3.80;1.20;;;25.00;48.00;;;;;;4994948;28;20569;-78
2022/07/19 00:31:49;;;;;;;3.63;1.73;;;25.00;48.10;;;;;;4994490;28;20609;-77
2022/07/19 00:34:15;;;;;;;2.57;1.20;;;25.00;48.30;;;;;;4993099;28;20183;-77
2022/07/19 00:36:41;;;;;;;2.30;1.53;;;24.90;48.30;;;;;;4994667;28;20174;-77
2022/07/19 00:39:07;;;;;;;5.00;1.50;;;24.90;48.40;;;;;;4977097;28;20187;-77
2022/07/19 00:41:39;;;;;;;2.30;1.40;;;24.90;48.50;;;;;;4994809;28;20700;-78
2022/07/19 00:44:05;;;;;;;3.50;1.40;;;24.90;48.80;;;;;;4994929;28;20611;-77
2022/07/19 00:46:31;;;;;;;2.93;1.03;;;24.80;48.70;;;;;;4999826;28;20613;-76
2022/07/19 00:48:57;;;;;;;1.97;1.30;;;24.80;48.80;;;;;;4994739;28;20171;-77
2022/07/19 00:51:23;;;;;;;3.10;1.30;;;24.70;48.90;;;;;;4993419;28;20594;-77
2022/07/19 00:53:49;;;;;;;2.50;1.37;;;24.70;49.00;;;;;;5001509;28;20570;-77
2022/07/19 00:56:17;;;;;;;1.90;1.10;;;24.70;48.90;;;;;;5007674;28;20175;-77
2022/07/19 00:58:43;;;;;;;1.60;1.00;;;24.70;49.20;;;;;;4999186;28;20593;-77
2022/07/19 01:01:10;;;;;;;2.57;1.10;;;24.70;49.00;;;;;;4998029;28;20582;-77
2022/07/19 01:03:38;;;;;;;2.97;1.63;;;24.70;49.10;;;;;;5000752;28;21027;-77
2022/07/19 01:06:04;;;;;;;2.67;1.30;;;24.70;49.20;;;;;;5015738;28;20980;-77
2022/07/19 01:08:30;;;;;;;2.10;1.33;;;24.70;49.30;;;;;;4997883;28;20570;-77
2022/07/19 01:10:56;;;;;;;1.87;1.20;;;24.70;49.40;;;;;;4995625;28;21248;-77
2022/07/19 01:13:22;;;;;;;2.93;1.63;;;24.70;49.40;;;;;;4996194;28;20167;-76
2022/07/19 01:15:48;;;;;;;5.53;1.50;;;24.70;49.60;;;;;;4996558;28;20179;-76
2022/07/19 01:18:14;;;;;;;3.60;1.40;;;24.60;49.60;;;;;;4995861;28;20933;-77
2022/07/19 01:20:40;;;;;;;2.70;1.87;;;24.60;49.60;;;;;;4993117;28;20235;-77
2022/07/19 01:23:06;;;;;;;2.33;1.67;;;24.60;49.60;;;;;;5003033;28;20202;-77
2022/07/19 01:25:34;;;;;;;3.70;1.33;;;24.60;49.70;;;;;;4996619;28;20195;-76
2022/07/19 01:28:02;;;;;;;2.57;1.43;;;24.50;49.80;;;;;;4992475;28;20609;-76
2022/07/19 01:30:28;;;;;;;2.97;1.20;;;24.50;49.90;;;;;;4993668;28;20957;-76
2022/07/19 01:32:55;;;;;;;4.40;1.63;;;24.50;49.90;;;;;;4993742;28;20692;-77
2022/07/19 01:35:21;;;;;;;4.23;1.20;;;24.40;50.10;;;;;;4993227;28;20652;-76
2022/07/19 01:37:47;;;;;;;5.73;1.63;;;24.40;50.10;;;;;;4993625;28;20606;-77
2022/07/19 01:40:15;;;;;;;2.00;1.30;;;24.40;50.40;;;;;;4993470;28;20937;-76
2022/07/19 01:42:42;;;;;;;4.27;1.20;;;24.40;50.20;;;;;;5008520;28;21018;-77
2022/07/19 01:45:09;;;;;;;2.57;1.40;;;24.30;50.20;;;;;;4992936;28;20725;-76
2022/07/19 01:47:35;;;;;;;3.37;1.60;;;24.30;50.50;;;;;;4993529;28;20630;-76
2022/07/19 01:50:02;;;;;;;2.90;1.30;;;24.30;50.70;;;;;;4990893;28;20983;-77
2022/07/19 01:52:28;;;;;;;2.20;1.50;;;24.20;50.60;;;;;;4993458;28;20602;-76
2022/07/19 01:54:53;;;;;;;4.03;1.10;;;24.20;51.00;;;;;;4993353;28;20564;-76
2022/07/19 01:57:19;;;;;;;3.00;1.50;;;24.10;51.00;;;;;;4994188;28;20202;-77
2022/07/19 01:59:45;;;;;;;3.67;1.23;;;24.10;51.10;;;;;;4995852;28;20162;-76
2022/07/19 02:02:11;;;;;;;3.10;1.10;;;24.10;51.10;;;;;;5008363;28;20590;-76
2022/07/19 02:04:37;;;;;;;1.70;1.10;;;24.10;51.10;;;;;;5007727;28;20167;-76
2022/07/19 02:07:03;;;;;;;2.73;1.30;;;24.00;51.50;;;;;;4993060;28;20571;-76
2022/07/19 02:09:29;;;;;;;4.13;2.20;;;24.00;51.40;;;;;;4992955;28;20254;-76
2022/07/19 02:11:54;;;;;;;3.00;1.07;;;24.00;51.30;;;;;;4992644;28;20689;-76
2022/07/19 02:14:20;;;;;;;1.73;1.07;;;24.00;51.20;;;;;;4992397;28;20183;-77
2022/07/19 02:16:46;;;;;;;3.03;1.50;;;24.00;51.70;;;;;;4992895;28;20194;-76
2022/07/19 02:19:12;;;;;;;1.90;1.00;;;24.00;51.50;;;;;;4992669;28;20229;-76
2022/07/19 02:21:38;;;;;;;3.50;1.70;;;24.00;51.70;;;;;;4992409;28;20274;-76
2022/07/19 02:24:05;;;;;;;1.80;1.27;;;24.00;52.00;;;;;;5017751;23;20230;-78
2022/07/19 02:26:31;;;;;;;4.13;2.20;;;24.00;51.80;;;;;;5011197;28;20589;-78
2022/07/19 02:28:57;;;;;;;2.77;1.30;;;24.00;51.70;;;;;;5012143;28;20593;-78
2022/07/19 02:31:23;;;;;;;4.13;1.30;;;23.90;51.80;;;;;;4994528;28;20652;-78
2022/07/19 02:33:49;;;;;;;2.60;1.10;;;23.90;51.80;;;;;;5001142;28;20182;-77
2022/07/19 02:36:17;;;;;;;3.93;1.40;;;23.90;51.80;;;;;;4996701;28;21240;-77
2022/07/19 02:38:43;;;;;;;2.73;1.30;;;23.90;52.10;;;;;;4975000;28;20866;-78
2022/07/19 02:41:10;;;;;;;2.37;1.10;;;23.90;51.90;;;;;;4974848;28;20911;-78
2022/07/19 02:43:36;;;;;;;6.10;1.13;;;23.90;51.90;;;;;;4991135;28;20629;-78
2022/07/19 02:46:02;;;;;;;2.40;1.47;;;23.80;52.10;;;;;;4992041;28;20577;-79
2022/07/19 02:48:28;;;;;;;1.53;0.90;;;23.80;52.10;;;;;;4992147;28;20578;-79
2022/07/19 02:50:54;;;;;;;3.27;1.00;;;23.70;52.00;;;;;;4992135;28;20571;-78
2022/07/19 02:53:19;;;;;;;3.83;1.43;;;23.80;52.20;;;;;;4974970;28;20195;-78
2022/07/19 02:55:45;;;;;;;1.90;1.13;;;23.70;52.40;;;;;;4991760;28;20205;-77
2022/07/19 02:58:11;;;;;;;4.90;2.17;;;23.70;52.20;;;;;;4974795;28;20278;-77
2022/07/19 03:00:37;;;;;;;1.77;1.20;;;23.70;52.20;;;;;;4992004;28;20570;-77
2022/07/19 03:05:48;;;;;;;1.90;1.00;;;23.70;52.40;;;;;;4991155;28;20643;-77
2022/07/19 03:08:14;;;;;;;1.97;1.17;;;23.70;52.40;;;;;;4958819;28;20574;-78
2022/07/19 03:10:40;;;;;;;2.93;1.30;;;23.60;52.40;;;;;;4994087;28;20580;-78
2022/07/19 03:13:06;;;;;;;2.70;1.10;;;23.60;52.50;;;;;;4961382;28;20614;-78
2022/07/19 03:15:32;;;;;;;3.50;1.93;;;23.60;52.60;;;;;;4991629;28;20613;-77
2022/07/19 03:17:58;;;;;;;2.93;1.33;;;23.60;52.90;;;;;;4958483;28;20225;-77
2022/07/19 03:20:23;;;;;;;2.70;1.30;;;23.60;52.70;;;;;;4991919;28;21113;-77
2022/07/19 03:22:49;;;;;;;4.30;1.30;;;23.60;52.60;;;;;;4991768;28;20198;-78
2022/07/19 03:25:16;;;;;;;2.17;1.00;;;23.60;52.80;;;;;;4991608;28;20566;-77
2022/07/19 03:27:41;;;;;;;2.10;1.13;;;23.50;52.70;;;;;;4974736;28;20222;-77
2022/07/19 03:30:08;;;;;;;2.83;1.10;;;23.60;53.40;;;;;;4991722;28;21386;-77
2022/07/19 03:32:33;;;;;;;3.37;1.17;;;23.50;53.00;;;;;;4991481;28;20174;-78
2022/07/19 03:34:59;;;;;;;2.30;1.20;;;23.50;53.10;;;;;;4991454;28;21114;-77
2022/07/19 03:37:25;;;;;;;2.50;1.13;;;23.50;53.80;;;;;;4992009;28;20203;-77
2022/07/19 03:39:51;;;;;;;2.10;1.00;;;23.50;53.20;;;;;;4991518;28;20172;-78
2022/07/19 03:42:16;;;;;;;1.60;1.00;;;23.50;53.20;;;;;;4974480;28;20189;-78
2022/07/19 03:44:42;;;;;;;3.40;1.30;;;23.50;53.30;;;;;;4957953;28;20195;-78
2022/07/19 03:47:08;;;;;;;2.10;1.10;;;23.40;53.40;;;;;;4994004;28;20238;-78
2022/07/19 03:49:34;;;;;;;2.47;1.00;;;23.40;53.40;;;;;;4978247;28;20230;-78
2022/07/19 03:52:00;;;;;;;1.70;0.97;;;23.40;53.30;;;;;;4993960;28;20214;-78
2022/07/19 03:54:25;;;;;;;5.07;1.17;;;23.40;53.40;;;;;;4979261;28;20549;-78
2022/07/19 03:56:51;;;;;;;2.60;1.00;;;23.40;53.40;;;;;;4993921;28;20207;-78
2022/07/19 03:59:18;;;;;;;4.83;1.30;;;23.40;53.50;;;;;;4975398;28;20175;-77
2022/07/19 04:01:43;;;;;;;2.53;1.20;;;23.40;53.50;;;;;;4991328;28;20582;-77
2022/07/19 04:04:09;;;;;;;2.67;1.30;;;23.40;53.60;;;;;;4973761;28;20680;-78
2022/07/19 04:06:35;;;;;;;2.10;1.00;;;23.40;53.70;;;;;;4974213;28;20186;-79
2022/07/19 04:09:01;;;;;;;2.30;1.20;;;23.30;53.80;;;;;;4991643;28;20171;-78
2022/07/19 04:11:27;;;;;;;2.93;1.20;;;23.30;53.70;;;;;;4974084;28;20236;-78
2022/07/19 04:13:52;;;;;;;6.37;1.33;;;23.30;53.90;;;;;;4977114;28;21188;-78
2022/07/19 04:16:18;;;;;;;3.63;1.20;;;23.30;53.80;;;;;;4994325;28;20613;-78
2022/07/19 04:18:44;;;;;;;3.80;1.20;;;23.30;53.70;;;;;;4995240;28;20643;-77
2022/07/19 04:21:10;;;;;;;2.07;1.00;;;23.30;53.90;;;;;;4977229;28;20186;-77
2022/07/19 04:23:35;;;;;;;3.30;1.63;;;23.30;53.70;;;;;;4996026;28;20198;-76
2022/07/19 04:26:01;;;;;;;2.63;1.30;;;23.40;53.90;;;;;;4981105;28;20186;-77
2022/07/19 04:28:27;;;;;;;1.93;0.90;;;23.40;53.90;;;;;;4977594;28;20395;-77
2022/07/19 04:30:53;;;;;;;2.90;1.20;;;23.40;53.90;;;;;;4994386;28;20183;-77
2022/07/19 04:33:19;;;;;;;3.17;1.37;;;23.40;53.80;;;;;;4977452;28;20195;-77
2022/07/19 04:35:45;;;;;;;5.80;1.70;;;23.40;54.00;;;;;;4994450;28;20233;-76
2022/07/19 04:38:11;;;;;;;3.60;1.20;;;23.40;53.80;;;;;;4992634;28;20624;-77
2022/07/19 04:40:38;;;;;;;4.87;1.60;;;23.50;53.90;;;;;;4977090;28;20609;-77
2022/07/19 04:43:04;;;;;;;3.53;1.17;;;23.40;54.00;;;;;;4994684;28;20609;-77
2022/07/19 04:45:30;;;;;;;4.03;1.10;;;23.50;53.90;;;;;;4992882;28;20581;-77
2022/07/19 04:47:56;;;;;;;4.67;1.20;;;23.50;54.00;;;;;;4994456;28;20636;-77
2022/07/19 04:50:21;;;;;;;4.23;1.50;;;23.50;53.80;;;;;;4994304;28;20175;-78
2022/07/19 04:52:47;;;;;;;4.73;0.97;;;23.60;54.00;;;;;;4960808;28;20581;-77
2022/07/19 04:55:14;;;;;;;2.37;1.10;;;23.60;53.90;;;;;;4993935;28;20539;-77
2022/07/19 04:57:40;;;;;;;2.77;1.27;;;23.70;53.90;;;;;;4961125;28;20175;-77
2022/07/19 05:00:10;;;;;;;2.33;1.10;;;23.80;53.80;;;;;;4994087;28;21102;-77
2022/07/19 05:02:37;;;;;;;5.30;1.27;;;23.80;53.90;;;;;;4980455;28;20935;-78
2022/07/19 05:05:03;;;;;;;5.93;1.40;;;24.00;54.00;;;;;;4976382;28;20582;-78
2022/07/19 05:07:29;;;;;;;3.70;1.40;;;24.10;53.70;;;;;;4976507;28;20636;-78
2022/07/19 05:09:55;;;;;;;5.90;1.80;;;24.20;53.50;;;;;;4994169;28;20877;-78
2022/07/19 05:12:21;;;;;;;2.63;1.20;;;24.20;53.30;;;;;;4994323;28;20258;-78
2022/07/19 05:14:47;;;;;;;3.00;1.20;;;24.20;53.30;;;;;;4993703;28;20191;-78
2022/07/19 05:17:14;;;;;;;5.03;1.20;;;24.30;53.30;;;;;;4993908;28;20637;-78
2022/07/19 05:19:43;;;;;;;2.43;1.50;;;24.30;53.20;;;;;;4976490;28;20212;-77
2022/07/19 05:22:09;;;;;;;4.00;1.20;;;24.30;53.10;;;;;;4976410;28;20567;-77
2022/07/19 05:24:35;;;;;;;2.60;1.10;;;24.40;53.20;;;;;;4958875;28;20641;-78
2022/07/19 05:27:01;;;;;;;4.00;1.83;;;24.40;53.10;;;;;;4993911;28;20175;-78
2022/07/19 05:29:27;;;;;;;2.00;1.20;;;24.50;53.10;;;;;;4974975;28;20233;-78
2022/07/19 05:31:53;;;;;;;4.43;1.10;;;24.50;53.00;;;;;;4993266;28;20225;-77
2022/07/19 05:34:18;;;;;;;2.30;1.50;;;24.60;53.00;;;;;;4975761;28;20618;-78
2022/07/19 05:36:44;;;;;;;2.27;1.20;;;24.60;52.80;;;;;;4977805;28;20697;-77
2022/07/19 05:39:10;;;;;;;2.90;1.47;;;24.70;52.70;;;;;;4962979;28;20194;-77
2022/07/19 05:41:36;;;;;;;3.07;1.17;;;24.70;52.50;;;;;;4976043;28;20179;-78
2022/07/19 05:44:02;;;;;;;3.60;1.80;;;24.80;52.50;;;;;;4986792;28;21176;-76
2022/07/19 05:46:27;;;;;;;3.00;1.27;;;24.90;52.30;;;;;;4995498;28;20181;-76
2022/07/19 05:48:53;;;;;;;3.10;1.63;;;24.90;52.20;;;;;;5012901;28;20569;-76
2022/07/19 05:51:19;;;;;;;3.50;1.30;;;25.00;52.00;;;;;;4994581;28;20632;-76
2022/07/19 05:53:45;;;;;;;4.63;1.13;;;25.10;52.10;;;;;;5012017;28;20194;-76
2022/07/19 05:56:11;;;;;;;3.23;1.20;;;25.20;52.00;;;;;;5011527;28;21058;-76
2022/07/19 05:58:37;;;;;;;4.73;1.17;;;25.50;52.30;;;;;;4995051;28;20566;-76
2022/07/19 06:01:19;;;;;;;3.10;1.53;;;25.80;51.90;;;;;;4994457;28;20198;-76
2022/07/19 06:03:47;;;;;;;2.53;1.10;;;26.20;51.70;;;;;;5012255;28;20623;-76
2022/07/19 06:06:13;;;;;;;2.50;1.23;;;26.80;51.70;;;;;;5012006;28;20570;-77
2022/07/19 06:08:40;;;;;;;3.03;1.20;;;27.50;52.10;;;;;;5012599;28;20569;-76
2022/07/19 06:11:06;;;;;;;2.63;1.27;;;28.30;50.80;;;;;;5012193;28;20583;-77
2022/07/19 06:13:31;;;;;;;2.33;1.00;;;29.00;50.40;;;;;;5014496;28;20605;-76
2022/07/19 06:15:57;;;;;;;2.63;1.10;;;29.70;48.90;;;;;;4994714;28;20628;-77
2022/07/19 06:18:23;;;;;;;1.63;0.87;;;30.40;48.30;;;;;;4978623;28;20249;-77
2022/07/19 06:20:49;;;;;;;2.17;1.10;;;31.00;47.40;;;;;;4978535;28;20205;-77
2022/07/19 06:23:14;;;;;;;4.40;1.10;;;31.50;48.00;;;;;;4978818;28;20202;-76
2022/07/19 06:25:40;;;;;;;5.10;1.27;;;31.90;45.70;;;;;;4978308;28;20658;-74
2022/07/19 06:28:06;;;;;;;5.00;1.23;;;32.40;45.30;;;;;;5012602;28;20669;-75
2022/07/19 06:30:32;;;;;;;3.87;1.00;;;32.80;44.70;;;;;;4978502;28;20172;-75
2022/07/19 06:32:58;;;;;;;4.60;1.60;;;33.20;43.40;;;;;;4994398;28;20256;-75
2022/07/19 06:35:24;;;;;;;2.33;1.00;;;33.60;42.90;;;;;;4977926;28;20208;-75
2022/07/19 06:37:50;;;;;;;2.00;1.10;;;33.80;41.60;;;;;;5012341;28;20171;-76
2022/07/19 06:40:16;;;;;;;2.10;1.13;;;34.10;41.20;;;;;;4994387;28;20568;-74
2022/07/19 06:42:41;;;;;;;5.10;1.00;;;34.40;40.90;;;;;;5012048;28;20202;-74
2022/07/19 06:45:08;;;;;;;2.10;0.90;;;34.50;40.00;;;;;;5011363;28;20180;-75
2022/07/19 06:47:34;;;;;;;4.93;1.20;;;34.70;40.20;;;;;;4962057;28;20174;-75
2022/07/19 06:49:59;;;;;;;2.00;1.00;;;35.00;39.50;;;;;;4996266;28;20613;-75
2022/07/19 06:52:25;;;;;;;4.20;1.50;;;35.20;38.90;;;;;;5013223;28;20618;-75
2022/07/19 06:54:51;;;;;;;4.60;1.30;;;35.40;39.50;;;;;;4993584;28;20187;-76
2022/07/19 06:57:20;;;;;;;2.47;1.30;;;35.60;38.70;;;;;;5010483;28;20628;-78
2022/07/19 06:59:46;;;;;;;2.43;1.17;;;36.00;39.30;;;;;;4994774;28;20243;-78
2022/07/19 07:02:11;;;;;;;3.10;1.20;;;36.60;38.90;;;;;;4977837;28;20577;-78
2022/07/19 07:04:37;;;;;;;2.43;1.10;;;36.70;36.60;;;;;;4961883;28;20248;-78
2022/07/19 07:07:03;;;;;;;5.00;1.10;;;37.00;36.20;;;;;;4994279;28;20181;-78
2022/07/19 07:09:29;;;;;;;4.47;0.90;;;37.20;36.80;;;;;;4974079;28;20171;-78
2022/07/19 07:11:55;;;;;;;5.60;1.37;;;37.30;35.50;;;;;;4958395;28;20840;-78
2022/07/19 07:14:20;;;;;;;3.50;1.13;;;37.50;35.30;;;;;;4974096;28;20194;-78
2022/07/19 07:16:46;;;;;;;5.07;1.30;;;37.40;34.90;;;;;;4958355;28;20195;-78
2022/07/19 07:19:12;;;;;;;3.80;1.10;;;37.50;34.50;;;;;;4957294;28;20240;-78
2022/07/19 07:21:38;;;;;;;2.80;1.10;;;37.50;33.70;;;;;;4989050;28;20177;-78
2022/07/19 07:24:05;;;;;;;2.80;1.10;;;37.60;34.70;;;;;;4973521;28;20210;-77
2022/07/19 07:26:31;;;;;;;2.50;1.10;;;37.70;33.90;;;;;;4992119;28;20175;-77
2022/07/19 07:28:58;;;;;;;3.30;1.30;;;37.70;33.40;;;;;;4992720;28;20648;-77
2022/07/19 07:31:24;;;;;;;3.53;1.23;;;37.70;33.70;;;;;;4973896;28;20597;-78
2022/07/19 07:33:51;;;;;;;1.90;1.20;;;37.80;33.10;;;;;;4975950;28;20695;-77
2022/07/19 07:36:17;;;;;;;3.10;1.27;;;37.60;32.70;;;;;;4990839;28;20624;-78
2022/07/19 07:38:43;;;;;;;3.97;1.10;;;37.70;33.00;;;;;;4975080;28;20930;-77
2022/07/19 07:41:09;;;;;;;3.27;1.37;;;37.90;33.40;;;;;;4991181;28;21180;-77
2022/07/19 07:43:36;;;;;;;2.30;1.17;;;37.90;32.50;;;;;;4958551;28;20597;-77
2022/07/19 07:46:05;;;;;;;2.63;0.90;;;37.90;32.70;;;;;;4958003;28;20175;-78
2022/07/19 07:48:31;;;;;;;5.53;1.47;;;38.20;32.90;;;;;;4961197;28;20577;-79
2022/07/19 07:50:59;;;;;;;3.50;1.30;;;38.30;32.40;;;;;;4977944;28;21177;-79
2022/07/19 07:53:25;;;;;;;5.43;2.03;;;38.50;32.30;;;;;;4962115;28;20209;-79
2022/07/19 07:55:51;;;;;;;2.93;1.00;;;38.40;31.70;;;;;;4961574;28;20713;-79
2022/07/19 07:58:16;;;;;;;1.60;0.80;;;38.30;31.90;;;;;;4946317;28;20742;-78
2022/07/19 08:00:42;;;;;;;2.13;1.00;;;38.50;31.90;;;;;;4977541;28;20175;-78
2022/07/19 08:03:09;;;;;;;2.20;1.20;;;38.50;31.70;;;;;;4978560;28;20187;-77
2022/07/19 08:05:35;;;;;;;3.13;1.00;;;38.70;31.90;;;;;;4977857;28;20175;-77
2022/07/19 08:08:01;;;;;;;5.10;1.10;;;39.00;31.60;;;;;;4995120;28;21140;-77
2022/07/19 08:10:32;;;;;;;2.90;1.23;;;39.20;31.40;;;;;;4961317;28;20190;-78
2022/07/19 08:12:58;;;;;;;2.73;1.10;;;39.30;31.60;;;;;;4960941;28;20624;-78
2022/07/19 08:15:24;;;;;;;4.60;1.73;;;39.50;31.50;;;;;;4976368;28;20954;-77
2022/07/19 08:17:50;;;;;;;2.67;1.20;;;39.90;32.60;;;;;;4977269;28;20590;-78
2022/07/19 08:20:16;;;;;;;2.00;1.07;;;40.20;30.90;;;;;;4993822;28;20919;-78
2022/07/19 08:22:42;;;;;;;2.77;0.93;;;40.50;30.00;;;;;;4965871;28;20586;-79
2022/07/19 08:25:08;;;;;;;3.43;1.13;;;40.40;30.00;;;;;;4969011;28;20167;-79
2022/07/19 08:27:34;;;;;;;2.20;0.87;;;40.40;29.80;;;;;;4961066;28;20660;-79
2022/07/19 08:30:01;;;;;;;2.33;1.13;;;40.50;29.90;;;;;;4976497;28;20617;-78
2022/07/19 08:32:30;;;;;;;3.47;1.30;;;40.70;29.90;;;;;;4958762;28;20785;-79
2022/07/19 08:34:56;;;;;;;3.50;1.20;;;40.80;29.40;;;;;;4985422;28;20593;-79
2022/07/19 08:37:21;;;;;;;3.93;1.40;;;40.80;29.40;;;;;;4975817;28;20614;-78
2022/07/19 08:39:47;;;;;;;3.90;1.10;;;40.90;29.20;;;;;;4979049;28;20549;-78
2022/07/19 08:42:16;;;;;;;3.00;1.27;;;41.00;29.30;;;;;;4960570;28;20207;-78
2022/07/19 08:44:42;;;;;;;2.50;1.30;;;41.20;29.50;;;;;;4975796;28;20197;-79
2022/07/19 08:47:11;;;;;;;2.53;1.10;;;41.40;29.10;;;;;;4975015;28;20682;-77
2022/07/19 08:49:37;;;;;;;3.50;1.23;;;41.50;29.00;;;;;;4991011;28;20593;-77
2022/07/19 08:52:04;;;;;;;3.30;1.10;;;41.80;29.80;;;;;;4976604;28;20577;-78
2022/07/19 08:54:29;;;;;;;3.13;1.03;;;42.30;29.30;;;;;;4993136;28;20596;-78
2022/07/19 08:59:40;;;;;;;1.70;1.10;;;42.50;27.90;;;;;;4959448;28;20210;-78
2022/07/19 09:02:06;;;;;;;5.00;0.93;;;42.30;27.90;;;;;;4960348;28;20632;-78
2022/07/19 09:04:32;;;;;;;4.50;1.50;;;42.40;28.20;;;;;;4975673;28;20560;-78
2022/07/19 09:06:58;;;;;;;3.80;1.20;;;42.40;27.70;;;;;;4993730;28;20622;-78
2022/07/19 09:09:27;;;;;;;3.20;1.50;;;42.40;27.70;;;;;;4976434;28;20695;-78
2022/07/19 09:11:57;;;;;;;2.43;0.90;;;42.40;27.50;;;;;;4977988;28;20596;-78
2022/07/19 09:14:27;;;;;;;1.60;1.17;;;42.30;27.30;;;;;;4968826;28;20998;-78
2022/07/19 09:17:12;;;;;;;3.53;1.00;;;42.30;27.90;;;;;;4960449;28;20574;-78
2022/07/19 09:19:44;;;;;;;3.30;1.10;;;42.20;27.00;;;;;;4960573;28;20580;-78
2022/07/19 09:22:13;;;;;;;3.30;1.40;;;42.10;27.10;;;;;;4995721;28;20600;-78
2022/07/19 09:24:42;;;;;;;2.10;0.97;;;42.10;27.00;;;;;;4994824;28;20617;-78
2022/07/19 09:27:10;;;;;;;4.33;1.20;;;42.30;27.60;;;;;;4995467;28;20617;-78
2022/07/19 09:29:38;;;;;;;6.27;1.53;;;42.50;27.00;;;;;;4978899;28;20601;-78
2022/07/19 09:32:08;;;;;;;7.87;1.50;;;42.50;26.90;;;;;;4995528;28;20575;-78
2022/07/19 09:34:36;;;;;;;8.63;1.43;;;42.40;26.60;;;;;;4978269;28;20613;-78
2022/07/19 09:37:08;;;;;;;2.50;0.90;;;42.30;26.60;;;;;;4979799;28;20905;-79
2022/07/19 09:39:34;;;;;;;2.17;1.13;;;42.50;26.50;;;;;;4977341;28;20954;-80
2022/07/19 09:42:02;;;;;;;7.03;1.20;;;42.60;26.90;;;;;;4976582;28;20569;-80
2022/07/19 09:44:29;;;;;;;2.90;1.10;;;42.80;26.70;;;;;;4994267;28;20190;-80
2022/07/19 09:46:55;;;;;;;3.67;1.10;;;42.80;26.20;;;;;;4993921;28;21175;-80
2022/07/19 09:49:21;;;;;;;2.93;1.30;;;42.80;26.20;;;;;;4993480;28;20576;-80
2022/07/19 09:51:49;;;;;;;2.93;1.20;;;42.80;26.20;;;;;;4993103;28;20182;-79
2022/07/19 09:54:20;;;;;;;2.93;1.43;;;42.60;25.90;;;;;;4975365;28;20611;-80
2022/07/19 09:56:48;;;;;;;2.90;1.20;;;42.60;26.00;;;;;;4991937;28;20629;-79
2022/07/19 09:59:14;;;;;;;3.10;1.10;;;42.50;25.90;;;;;;5002795;28;20597;-77
2022/07/19 10:01:42;;;;;;;2.33;1.10;;;42.80;26.00;;;;;;4960011;28;20640;-79
2022/07/19 10:04:13;;;;;;;5.00;1.13;;;43.00;25.90;;;;;;4993294;28;20718;-80
2022/07/19 10:06:40;;;;;;;2.20;1.10;;;43.00;25.60;;;;;;4992242;28;20630;-77
2022/07/19 10:09:08;;;;;;;1.93;1.00;;;43.00;25.10;;;;;;4992794;28;20566;-77
2022/07/19 10:11:34;;;;;;;4.90;1.17;;;43.10;24.80;;;;;;4974060;28;20578;-77
2022/07/19 10:14:01;;;;;;;3.07;1.03;;;43.20;24.40;;;;;;4992122;28;20652;-79
2022/07/19 10:16:38;;;;;;;4.27;1.07;;;43.30;24.40;;;;;;4975133;28;20174;-77
2022/07/19 10:19:26;;;;;;;3.43;1.10;;;43.30;24.30;;;;;;4980656;28;20593;-78
2022/07/19 10:21:53;;;;;;;4.20;1.30;;;43.40;24.00;;;;;;4994856;28;20648;-76
2022/07/19 10:24:50;;;;;;;3.03;1.03;;;43.60;23.70;;;;;;4975477;28;20633;-76
2022/07/19 10:27:36;;;;;;;4.97;1.50;;;43.80;23.40;;;;;;4959346;28;20646;-77
2022/07/19 10:30:14;;;;;;;2.90;1.20;;;43.90;23.00;;;;;;4961200;28;20574;-77
2022/07/19 10:32:44;;;;;;;3.20;1.17;;;44.00;23.20;;;;;;4978273;28;21149;-78
2022/07/19 10:35:19;;;;;;;3.40;1.40;;;44.20;22.90;;;;;;4993096;28;20928;-78
2022/07/19 10:38:00;;;;;;;4.50;1.90;;;44.40;22.70;;;;;;5010197;28;21383;-78
2022/07/19 10:40:43;;;;;;;2.67;0.70;;;44.60;22.10;;;;;;4979782;28;20628;-77
2022/07/19 10:43:24;;;;;;;4.47;1.20;;;44.40;21.70;;;;;;4990560;28;21393;-77
2022/07/19 10:45:59;;;;;;;3.20;1.27;;;44.20;21.80;;;;;;4957570;28;20724;-77
2022/07/19 10:48:38;;;;;;;2.63;1.00;;;44.10;21.70;;;;;;4990177;28;20577;-77
2022/07/19 10:51:05;;;;;;;3.33;1.47;;;43.90;22.00;;;;;;4990099;28;20588;-78
2022/07/19 10:53:55;;;;;;;2.77;1.73;;;43.90;22.10;;;;;;4973944;28;20598;-76
2022/07/19 10:56:24;;;;;;;2.30;1.23;;;43.70;22.30;;;;;;4957789;28;20575;-76
2022/07/19 10:59:07;;;;;;;4.30;1.10;;;43.80;22.30;;;;;;4991832;28;20582;-76
2022/07/19 11:01:35;;;;;;;3.03;0.90;;;43.80;22.20;;;;;;4973967;28;20582;-76
2022/07/19 11:04:28;;;;;;;3.63;1.00;;;43.60;22.30;;;;;;4991393;28;20698;-76
2022/07/19 11:07:14;;;;;;;2.67;0.87;;;43.50;22.50;;;;;;4988563;28;20633;-75
2022/07/19 11:09:50;;;;;;;1.90;0.90;;;43.50;22.30;;;;;;4987868;28;20610;-76
2022/07/19 11:12:24;;;;;;;1.87;0.90;;;43.60;22.70;;;;;;4987480;28;20593;-76
2022/07/19 11:14:50;;;;;;;2.40;0.90;;;43.60;23.00;;;;;;4969251;28;20629;-76
2022/07/19 11:17:16;;;;;;;3.20;1.20;;;43.80;22.80;;;;;;4963982;28;21168;-75
2022/07/19 11:20:07;;;;;;;3.33;1.20;;;43.80;22.70;;;;;;4991275;28;20570;-76
2022/07/19 11:22:35;;;;;;;2.17;1.10;;;43.90;22.80;;;;;;4985912;28;20654;-78
2022/07/19 11:25:03;;;;;;;3.73;0.90;;;43.90;22.70;;;;;;5013503;28;20584;-77
2022/07/19 11:27:30;;;;;;;1.73;1.10;;;43.80;22.60;;;;;;4997476;28;20992;-78
2022/07/19 11:29:59;;;;;;;2.27;1.10;;;44.00;23.60;;;;;;4997244;28;20596;-78
2022/07/19 11:32:25;;;;;;;2.30;1.13;;;44.10;22.70;;;;;;4997642;28;20933;-78
2022/07/19 11:34:59;;;;;;;3.80;1.00;;;44.10;23.60;;;;;;4997189;28;20604;-76
2022/07/19 11:37:31;;;;;;;3.90;1.23;;;44.30;23.10;;;;;;4996483;28;20608;-77
2022/07/19 11:39:57;;;;;;;4.10;2.00;;;44.30;22.60;;;;;;4994492;28;20668;-77
2022/07/19 11:42:35;;;;;;;2.07;1.10;;;44.00;22.00;;;;;;4985886;28;20610;-77
2022/07/19 11:45:08;;;;;;;1.47;0.70;;;43.90;22.00;;;;;;4993078;28;20669;-77
2022/07/19 11:47:34;;;;;;;2.87;1.10;;;43.80;22.10;;;;;;4977514;28;20628;-77
2022/07/19 11:50:05;;;;;;;3.20;0.90;;;43.70;22.00;;;;;;4977601;28;20554;-77
2022/07/19 11:52:52;;;;;;;1.80;0.87;;;43.60;21.90;;;;;;4977239;28;20270;-78
2022/07/19 11:55:21;;;;;;;2.40;1.17;;;43.40;21.80;;;;;;4961298;28;20581;-78
2022/07/19 11:57:50;;;;;;;3.23;1.00;;;43.10;21.40;;;;;;4961574;28;21149;-78
2022/07/19 12:00:17;;;;;;;3.80;1.00;;;42.90;21.70;;;;;;4961283;28;20581;-77
2022/07/19 12:03:13;;;;;;;1.90;1.03;;;43.00;21.70;;;;;;4977161;28;20681;-78
2022/07/19 12:05:40;;;;;;;1.90;0.90;;;42.90;21.50;;;;;;4975140;28;20610;-77
2022/07/19 12:08:08;;;;;;;1.70;1.00;;;42.80;21.70;;;;;;4975665;28;20593;-76
2022/07/19 12:10:35;;;;;;;5.93;1.30;;;42.70;21.60;;;;;;4990873;28;20690;-76
2022/07/19 12:13:02;;;;;;;2.17;1.17;;;42.70;22.10;;;;;;4960863;28;21088;-79
2022/07/19 12:15:42;;;;;;;2.37;1.20;;;42.50;21.60;;;;;;4944672;28;20597;-78
2022/07/19 12:18:08;;;;;;;2.27;1.20;;;42.40;21.60;;;;;;4994575;28;20615;-78
2022/07/19 12:20:34;;;;;;;5.30;1.60;;;42.20;21.40;;;;;;4993234;28;20570;-79
2022/07/19 12:23:18;;;;;;;1.60;1.00;;;42.10;21.40;;;;;;4976314;28;20217;-79
2022/07/19 12:25:45;;;;;;;3.77;1.30;;;42.00;21.50;;;;;;4960767;28;20202;-79
2022/07/19 12:28:11;;;;;;;3.80;1.20;;;42.20;21.40;;;;;;4993129;28;21150;-80
2022/07/19 12:30:37;;;;;;;2.87;1.00;;;42.10;21.60;;;;;;4994179;28;20689;-78
2022/07/19 12:33:13;;;;;;;2.10;1.10;;;42.00;21.70;;;;;;4976246;28;21174;-79
2022/07/19 12:35:47;;;;;;;2.00;1.10;;;41.90;21.10;;;;;;4976145;28;20577;-78
2022/07/19 12:38:14;;;;;;;2.33;0.97;;;41.80;21.50;;;;;;4993111;28;20594;-78
2022/07/19 12:40:44;;;;;;;3.10;0.80;;;41.80;21.80;;;;;;4976382;28;21167;-80
2022/07/19 12:43:13;;;;;;;3.70;1.10;;;41.70;22.00;;;;;;4976648;28;21199;-78
2022/07/19 12:45:46;;;;;;;6.43;1.03;;;41.70;22.10;;;;;;4993657;28;21200;-78
2022/07/19 12:48:14;;;;;;;2.83;1.30;;;41.60;22.30;;;;;;4994054;28;20582;-78
2022/07/19 12:50:41;;;;;;;2.77;1.40;;;41.40;22.40;;;;;;4992154;28;20574;-77
2022/07/19 12:53:09;;;;;;;1.87;0.90;;;41.10;22.40;;;;;;4976347;28;20708;-79
2022/07/19 12:55:36;;;;;;;1.93;1.30;;;41.00;22.50;;;;;;4960286;28;20621;-79